sensor_id;sensor_type;location;lat;lon;timestamp;pressure;altitude;pressure_sealevel;temperature;humidity
7660;BME280;3872;47.902;8.162;2023-08-30T00:00:51;91460.16;;;10.05;100.00
7660;BME280;3872;47.902;8.162;2023-08-30T00:03:18;91461.44;;;10.16;100.00
7660;BME280;3872;47.902;8.162;2023-08-30T00:05:45;91457.22;;;10.06;100.00
7660;BME280;3872;47.902;8.162;2023-08-30T00:08:11;91454.06;;;9.73;100.00
7660;BME280;3872;47.902;8.162;2023-08-30T00:10:38;91448.63;;;9.92;100.00
7660;BME280;3872;47.902;8.162;2023-08-30T00:13:09;91445.75;;;10.02;100.00
7660;BME280;3872;47.902;8.162;2023-08-30T00:15:35;91445.81;;;9.89;100.00
7660;BME280;3872;47.902;8.162;2023-08-30T00:18:02;91449.88;;;9.95;100.00
7660;BME280;3872;47.902;8.162;2023-08-30T00:20:29;91449.47;;;10.01;100.00
7660;BME280;3872;47.902;8.162;2023-08-30T00:22:56;91441.41;;;9.98;100.00
7660;BME280;3872;47.902;8.162;2023-08-30T00:25:22;91441.47;;;9.84;100.00
7660;BME280;3872;47.902;8.162;2023-08-30T00:27:49;91445.41;;;9.51;100.00
7660;BME280;3872;47.902;8.162;2023-08-30T00:30:17;91439.53;;;9.54;100.00
7660;BME280;3872;47.902;8.162;2023-08-30T00:32:43;91442.47;;;9.74;100.00
7660;BME280;3872;47.902;8.162;2023-08-30T00:35:10;91437.47;;;9.87;100.00
7660;BME280;3872;47.902;8.162;2023-08-30T00:37:37;91436.88;;;9.90;100.00
7660;BME280;3872;47.902;8.162;2023-08-30T00:40:04;91435.22;;;9.94;100.00
7660;BME280;3872;47.902;8.162;2023-08-30T00:42:31;91432.63;;;9.58;100.00
7660;BME280;3872;47.902;8.162;2023-08-30T00:44:58;91431.16;;;9.65;100.00
7660;BME280;3872;47.902;8.162;2023-08-30T00:47:25;91434.56;;;9.30;100.00
7660;BME280;3872;47.902;8.162;2023-08-30T00:49:52;91428.75;;;9.19;100.00
7660;BME280;3872;47.902;8.162;2023-08-30T00:52:18;91419.00;;;9.56;100.00
7660;BME280;3872;47.902;8.162;2023-08-30T00:54:45;91421.44;;;9.74;100.00
7660;BME280;3872;47.902;8.162;2023-08-30T00:57:12;91425.75;;;9.70;100.00
7660;BME280;3872;47.902;8.162;2023-08-30T00:59:39;91426.47;;;9.62;100.00
7660;BME280;3872;47.902;8.162;2023-08-30T01:02:05;91417.09;;;9.70;100.00
7660;BME280;3872;47.902;8.162;2023-08-30T01:04:34;91417.75;;;9.75;100.00
7660;BME280;3872;47.902;8.162;2023-08-30T01:07:01;91414.00;;;9.68;100.00
7660;BME280;3872;47.902;8.162;2023-08-30T01:09:27;91414.34;;;9.53;100.00
7660;BME280;3872;47.902;8.162;2023-08-30T01:11:59;91416.03;;;9.49;100.00
7660;BME280;3872;47.902;8.162;2023-08-30T01:14:32;91410.69;;;9.40;100.00
7660;BME280;3872;47.902;8.162;2023-08-30T01:17:01;91413.50;;;9.21;100.00
7660;BME280;3872;47.902;8.162;2023-08-30T01:19:41;91415.00;;;9.00;100.00
7660;BME280;3872;47.902;8.162;2023-08-30T01:22:14;91416.59;;;9.23;100.00
7660;BME280;3872;47.902;8.162;2023-08-30T01:24:48;91410.94;;;9.30;100.00
7660;BME280;3872;47.902;8.162;2023-08-30T01:27:17;91408.03;;;9.18;100.00
7660;BME280;3872;47.902;8.162;2023-08-30T01:29:45;91409.88;;;9.17;100.00
7660;BME280;3872;47.902;8.162;2023-08-30T01:32:12;91410.09;;;9.21;100.00
7660;BME280;3872;47.902;8.162;2023-08-30T01:34:41;91411.94;;;9.20;100.00
7660;BME280;3872;47.902;8.162;2023-08-30T01:37:10;91405.94;;;9.06;100.00
7660;BME280;3872;47.902;8.162;2023-08-30T01:39:39;91402.66;;;9.00;100.00
7660;BME280;3872;47.902;8.162;2023-08-30T01:42:07;91403.47;;;9.10;100.00
7660;BME280;3872;47.902;8.162;2023-08-30T01:44:36;91400.78;;;9.15;100.00
7660;BME280;3872;47.902;8.162;2023-08-30T01:47:05;91404.13;;;8.93;100.00
7660;BME280;3872;47.902;8.162;2023-08-30T01:49:33;91397.44;;;8.87;100.00
7660;BME280;3872;47.902;8.162;2023-08-30T01:52:03;91402.56;;;8.92;100.00
7660;BME280;3872;47.902;8.162;2023-08-30T01:54:30;91401.03;;;8.77;100.00
7660;BME280;3872;47.902;8.162;2023-08-30T01:56:57;91398.03;;;8.56;100.00
7660;BME280;3872;47.902;8.162;2023-08-30T01:59:24;91402.63;;;8.51;100.00
7660;BME280;3872;47.902;8.162;2023-08-30T02:01:52;91400.38;;;8.58;100.00
7660;BME280;3872;47.902;8.162;2023-08-30T02:04:20;91397.16;;;8.61;100.00
7660;BME280;3872;47.902;8.162;2023-08-30T02:06:52;91398.22;;;8.60;100.00
7660;BME280;3872;47.902;8.162;2023-08-30T02:09:24;91400.78;;;8.38;100.00
7660;BME280;3872;47.902;8.162;2023-08-30T02:11:54;91398.72;;;8.35;100.00
7660;BME280;3872;47.902;8.162;2023-08-30T02:14:21;91400.94;;;8.41;100.00
7660;BME280;3872;47.902;8.162;2023-08-30T02:16:52;91402.78;;;8.41;100.00
7660;BME280;3872;47.902;8.162;2023-08-30T02:19:22;91400.06;;;8.32;100.00
7660;BME280;3872;47.902;8.162;2023-08-30T02:21:49;91406.16;;;8.27;100.00
7660;BME280;3872;47.902;8.162;2023-08-30T02:24:17;91400.38;;;8.31;100.00
7660;BME280;3872;47.902;8.162;2023-08-30T02:26:44;91399.84;;;8.29;100.00
7660;BME280;3872;47.902;8.162;2023-08-30T02:29:11;91392.41;;;8.36;100.00
7660;BME280;3872;47.902;8.162;2023-08-30T02:31:38;91394.91;;;8.27;100.00
7660;BME280;3872;47.902;8.162;2023-08-30T02:34:06;91392.50;;;8.31;100.00
7660;BME280;3872;47.902;8.162;2023-08-30T02:36:33;91388.81;;;8.45;100.00
7660;BME280;3872;47.902;8.162;2023-08-30T02:38:59;91393.28;;;8.45;100.00
7660;BME280;3872;47.902;8.162;2023-08-30T02:41:26;91387.28;;;8.44;100.00
7660;BME280;3872;47.902;8.162;2023-08-30T02:43:52;91392.91;;;8.51;100.00
7660;BME280;3872;47.902;8.162;2023-08-30T02:46:19;91386.50;;;8.44;100.00
7660;BME280;3872;47.902;8.162;2023-08-30T02:48:45;91392.31;;;8.54;100.00
7660;BME280;3872;47.902;8.162;2023-08-30T02:51:13;91385.09;;;8.60;100.00
7660;BME280;3872;47.902;8.162;2023-08-30T02:53:40;91381.63;;;8.64;100.00
7660;BME280;3872;47.902;8.162;2023-08-30T02:56:06;91394.34;;;8.71;100.00
7660;BME280;3872;47.902;8.162;2023-08-30T02:58:33;91396.75;;;8.68;100.00
7660;BME280;3872;47.902;8.162;2023-08-30T03:01:00;91399.38;;;8.68;100.00
7660;BME280;3872;47.902;8.162;2023-08-30T03:03:28;91392.78;;;8.70;100.00
7660;BME280;3872;47.902;8.162;2023-08-30T03:05:54;91395.13;;;8.72;100.00
7660;BME280;3872;47.902;8.162;2023-08-30T03:08:23;91388.41;;;8.79;100.00
7660;BME280;3872;47.902;8.162;2023-08-30T03:10:50;91382.66;;;8.77;100.00
7660;BME280;3872;47.902;8.162;2023-08-30T03:13:17;91385.78;;;8.79;100.00
7660;BME280;3872;47.902;8.162;2023-08-30T03:15:44;91380.72;;;8.83;100.00
7660;BME280;3872;47.902;8.162;2023-08-30T03:18:10;91377.31;;;8.82;100.00
7660;BME280;3872;47.902;8.162;2023-08-30T03:20:37;91370.22;;;8.83;100.00
7660;BME280;3872;47.902;8.162;2023-08-30T03:23:03;91366.13;;;8.90;100.00
7660;BME280;3872;47.902;8.162;2023-08-30T03:25:33;91373.41;;;8.93;100.00
7660;BME280;3872;47.902;8.162;2023-08-30T03:28:00;91378.84;;;8.97;100.00
7660;BME280;3872;47.902;8.162;2023-08-30T03:30:26;91380.78;;;8.91;100.00
7660;BME280;3872;47.902;8.162;2023-08-30T03:32:53;91375.66;;;8.86;100.00
7660;BME280;3872;47.902;8.162;2023-08-30T03:35:20;91366.72;;;8.87;100.00
7660;BME280;3872;47.902;8.162;2023-08-30T03:37:47;91373.28;;;8.98;100.00
7660;BME280;3872;47.902;8.162;2023-08-30T03:40:13;91374.97;;;8.94;100.00
7660;BME280;3872;47.902;8.162;2023-08-30T03:42:43;91374.19;;;8.94;100.00
7660;BME280;3872;47.902;8.162;2023-08-30T03:45:10;91381.47;;;8.97;100.00
7660;BME280;3872;47.902;8.162;2023-08-30T03:47:36;91374.00;;;8.90;100.00
7660;BME280;3872;47.902;8.162;2023-08-30T03:50:05;91376.50;;;8.95;100.00
7660;BME280;3872;47.902;8.162;2023-08-30T03:52:33;91378.38;;;8.95;100.00
7660;BME280;3872;47.902;8.162;2023-08-30T03:55:00;91374.47;;;8.92;100.00
7660;BME280;3872;47.902;8.162;2023-08-30T03:57:28;91382.84;;;8.94;100.00
7660;BME280;3872;47.902;8.162;2023-08-30T03:59:56;91388.66;;;8.91;100.00
7660;BME280;3872;47.902;8.162;2023-08-30T04:02:22;91393.50;;;8.98;100.00
7660;BME280;3872;47.902;8.162;2023-08-30T04:04:49;91390.41;;;8.96;100.00
7660;BME280;3872;47.902;8.162;2023-08-30T04:07:16;91391.66;;;8.98;100.00
7660;BME280;3872;47.902;8.162;2023-08-30T04:09:42;91388.09;;;8.94;100.00
7660;BME280;3872;47.902;8.162;2023-08-30T04:12:09;91383.03;;;8.84;100.00
7660;BME280;3872;47.902;8.162;2023-08-30T04:14:35;91377.50;;;8.86;100.00
7660;BME280;3872;47.902;8.162;2023-08-30T04:17:03;91384.59;;;8.85;100.00
7660;BME280;3872;47.902;8.162;2023-08-30T04:19:30;91390.72;;;8.94;100.00
7660;BME280;3872;47.902;8.162;2023-08-30T04:21:56;91391.09;;;8.74;100.00
7660;BME280;3872;47.902;8.162;2023-08-30T04:24:23;91388.69;;;8.78;100.00
7660;BME280;3872;47.902;8.162;2023-08-30T04:26:49;91377.91;;;8.79;100.00
7660;BME280;3872;47.902;8.162;2023-08-30T04:29:18;91384.69;;;8.94;100.00
7660;BME280;3872;47.902;8.162;2023-08-30T04:31:45;91383.03;;;8.84;100.00
7660;BME280;3872;47.902;8.162;2023-08-30T04:34:12;91391.41;;;8.86;100.00
7660;BME280;3872;47.902;8.162;2023-08-30T04:36:40;91383.81;;;8.85;100.00
7660;BME280;3872;47.902;8.162;2023-08-30T04:39:08;91388.00;;;8.86;100.00
7660;BME280;3872;47.902;8.162;2023-08-30T04:41:36;91387.81;;;8.82;100.00
7660;BME280;3872;47.902;8.162;2023-08-30T04:44:03;91392.66;;;8.75;100.00
7660;BME280;3872;47.902;8.162;2023-08-30T04:46:30;91398.50;;;8.72;100.00
7660;BME280;3872;47.902;8.162;2023-08-30T04:48:56;91393.44;;;8.76;100.00
7660;BME280;3872;47.902;8.162;2023-08-30T04:51:24;91389.97;;;8.67;100.00
7660;BME280;3872;47.902;8.162;2023-08-30T04:53:51;91385.81;;;8.66;100.00
7660;BME280;3872;47.902;8.162;2023-08-30T04:56:18;91389.19;;;8.66;100.00
7660;BME280;3872;47.902;8.162;2023-08-30T04:58:45;91386.56;;;8.66;100.00
7660;BME280;3872;47.902;8.162;2023-08-30T05:01:11;91388.66;;;8.91;100.00
7660;BME280;3872;47.902;8.162;2023-08-30T05:03:40;91388.41;;;8.79;100.00
7660;BME280;3872;47.902;8.162;2023-08-30T05:06:09;91386.16;;;8.86;100.00
7660;BME280;3872;47.902;8.162;2023-08-30T05:08:39;91389.88;;;8.72;100.00
7660;BME280;3872;47.902;8.162;2023-08-30T05:11:06;91391.53;;;8.54;100.00
7660;BME280;3872;47.902;8.162;2023-08-30T05:13:35;91389.97;;;8.67;100.00
7660;BME280;3872;47.902;8.162;2023-08-30T05:16:05;91394.03;;;8.86;100.00
7660;BME280;3872;47.902;8.162;2023-08-30T05:18:32;91386.81;;;8.92;100.00
7660;BME280;3872;47.902;8.162;2023-08-30T05:21:00;91388.47;;;9.01;100.00
7660;BME280;3872;47.902;8.162;2023-08-30T05:23:29;91387.00;;;8.95;100.00
7660;BME280;3872;47.902;8.162;2023-08-30T05:25:57;91380.56;;;9.15;100.00
7660;BME280;3872;47.902;8.162;2023-08-30T05:28:24;91382.03;;;9.08;100.00
7660;BME280;3872;47.902;8.162;2023-08-30T05:30:50;91373.91;;;9.18;100.00
7660;BME280;3872;47.902;8.162;2023-08-30T05:33:49;91383.50;;;9.00;100.00
7660;BME280;3872;47.902;8.162;2023-08-30T05:36:42;91391.41;;;9.22;100.00
7660;BME280;3872;47.902;8.162;2023-08-30T05:39:20;91379.03;;;9.36;100.00
7660;BME280;3872;47.902;8.162;2023-08-30T05:41:51;91383.94;;;9.16;100.00
7660;BME280;3872;47.902;8.162;2023-08-30T05:44:17;91382.00;;;9.43;100.00
7660;BME280;3872;47.902;8.162;2023-08-30T05:46:44;91379.97;;;9.40;100.00
7660;BME280;3872;47.902;8.162;2023-08-30T05:49:11;91379.06;;;9.45;100.00
7660;BME280;3872;47.902;8.162;2023-08-30T05:51:37;91383.66;;;9.39;100.00
7660;BME280;3872;47.902;8.162;2023-08-30T05:54:04;91385.47;;;8.67;100.00
7660;BME280;3872;47.902;8.162;2023-08-30T05:56:31;91391.13;;;9.10;100.00
7660;BME280;3872;47.902;8.162;2023-08-30T05:59:00;91390.81;;;9.48;100.00
7660;BME280;3872;47.902;8.162;2023-08-30T06:01:26;91392.69;;;9.47;100.00
7660;BME280;3872;47.902;8.162;2023-08-30T06:03:53;91392.56;;;9.74;100.00
7660;BME280;3872;47.902;8.162;2023-08-30T06:06:19;91394.72;;;9.72;100.00
7660;BME280;3872;47.902;8.162;2023-08-30T06:08:46;91392.44;;;9.57;100.00
7660;BME280;3872;47.902;8.162;2023-08-30T06:11:12;91389.47;;;9.72;100.00
7660;BME280;3872;47.902;8.162;2023-08-30T06:13:40;91396.69;;;9.45;100.00
7660;BME280;3872;47.902;8.162;2023-08-30T06:16:08;91397.56;;;9.85;100.00
7660;BME280;3872;47.902;8.162;2023-08-30T06:18:34;91389.66;;;10.07;100.00
7660;BME280;3872;47.902;8.162;2023-08-30T06:21:02;91387.06;;;9.62;100.00
7660;BME280;3872;47.902;8.162;2023-08-30T06:23:29;91386.41;;;10.10;100.00
7660;BME280;3872;47.902;8.162;2023-08-30T06:25:57;91379.59;;;9.33;100.00
7660;BME280;3872;47.902;8.162;2023-08-30T06:28:24;91387.06;;;9.85;100.00
7660;BME280;3872;47.902;8.162;2023-08-30T06:30:50;91388.69;;;9.94;100.00
7660;BME280;3872;47.902;8.162;2023-08-30T06:33:18;91379.97;;;9.85;100.00
7660;BME280;3872;47.902;8.162;2023-08-30T06:35:47;91385.19;;;10.38;100.00
7660;BME280;3872;47.902;8.162;2023-08-30T06:38:14;91385.50;;;10.37;100.00
7660;BME280;3872;47.902;8.162;2023-08-30T06:40:43;91382.97;;;10.71;100.00
7660;BME280;3872;47.902;8.162;2023-08-30T06:43:10;91383.41;;;10.56;100.00
7660;BME280;3872;47.902;8.162;2023-08-30T06:45:37;91380.97;;;10.77;100.00
7660;BME280;3872;47.902;8.162;2023-08-30T06:48:04;91375.59;;;10.90;100.00
7660;BME280;3872;47.902;8.162;2023-08-30T06:50:32;91365.84;;;10.99;100.00
7660;BME280;3872;47.902;8.162;2023-08-30T06:52:59;91367.72;;;11.08;100.00
7660;BME280;3872;47.902;8.162;2023-08-30T06:55:25;91373.78;;;11.34;100.00
7660;BME280;3872;47.902;8.162;2023-08-30T06:57:52;91368.03;;;11.58;100.00
7660;BME280;3872;47.902;8.162;2023-08-30T07:00:19;91368.19;;;11.61;100.00
7660;BME280;3872;47.902;8.162;2023-08-30T07:02:45;91375.44;;;11.73;100.00
7660;BME280;3872;47.902;8.162;2023-08-30T07:05:12;91370.69;;;11.75;100.00
7660;BME280;3872;47.902;8.162;2023-08-30T07:07:40;91369.75;;;11.62;100.00
7660;BME280;3872;47.902;8.162;2023-08-30T07:10:07;91368.34;;;11.56;100.00
7660;BME280;3872;47.902;8.162;2023-08-30T07:12:34;91364.63;;;11.57;100.00
7660;BME280;3872;47.902;8.162;2023-08-30T07:15:01;91364.63;;;11.49;100.00
7660;BME280;3872;47.902;8.162;2023-08-30T07:17:29;91374.38;;;11.83;100.00
7660;BME280;3872;47.902;8.162;2023-08-30T07:19:56;91374.06;;;11.93;100.00
7660;BME280;3872;47.902;8.162;2023-08-30T07:22:22;91377.19;;;11.77;100.00
7660;BME280;3872;47.902;8.162;2023-08-30T07:24:50;91373.28;;;11.92;100.00
7660;BME280;3872;47.902;8.162;2023-08-30T07:27:16;91373.91;;;11.72;100.00
7660;BME280;3872;47.902;8.162;2023-08-30T07:29:43;91375.59;;;11.94;100.00
7660;BME280;3872;47.902;8.162;2023-08-30T07:32:09;91374.00;;;12.19;100.00
7660;BME280;3872;47.902;8.162;2023-08-30T07:34:36;91370.38;;;12.32;100.00
7660;BME280;3872;47.902;8.162;2023-08-30T07:37:03;91370.69;;;12.30;100.00
7660;BME280;3872;47.902;8.162;2023-08-30T07:39:29;91379.47;;;12.51;100.00
7660;BME280;3872;47.902;8.162;2023-08-30T07:41:57;91369.91;;;12.76;100.00
7660;BME280;3872;47.902;8.162;2023-08-30T07:44:24;91363.38;;;13.03;100.00
7660;BME280;3872;47.902;8.162;2023-08-30T07:46:51;91364.34;;;13.49;100.00
7660;BME280;3872;47.902;8.162;2023-08-30T07:49:18;91371.75;;;13.55;100.00
7660;BME280;3872;47.902;8.162;2023-08-30T07:51:44;91364.66;;;13.80;100.00
7660;BME280;3872;47.902;8.162;2023-08-30T07:54:11;91367.53;;;13.75;100.00
7660;BME280;3872;47.902;8.162;2023-08-30T07:56:38;91362.03;;;13.80;100.00
7660;BME280;3872;47.902;8.162;2023-08-30T07:59:06;91364.00;;;14.16;100.00
7660;BME280;3872;47.902;8.162;2023-08-30T08:01:32;91367.34;;;14.13;100.00
7660;BME280;3872;47.902;8.162;2023-08-30T08:03:59;91364.16;;;14.32;100.00
7660;BME280;3872;47.902;8.162;2023-08-30T08:06:25;91355.91;;;14.33;100.00
7660;BME280;3872;47.902;8.162;2023-08-30T08:08:52;91354.16;;;14.49;100.00
7660;BME280;3872;47.902;8.162;2023-08-30T08:11:18;91350.66;;;14.58;100.00
7660;BME280;3872;47.902;8.162;2023-08-30T08:13:45;91359.81;;;14.48;100.00
7660;BME280;3872;47.902;8.162;2023-08-30T08:16:13;91353.72;;;15.33;100.00
7660;BME280;3872;47.902;8.162;2023-08-30T08:18:39;91353.81;;;15.36;100.00
7660;BME280;3872;47.902;8.162;2023-08-30T08:21:06;91360.00;;;15.28;100.00
7660;BME280;3872;47.902;8.162;2023-08-30T08:23:33;91366.56;;;15.71;100.00
7660;BME280;3872;47.902;8.162;2023-08-30T08:26:00;91362.78;;;15.72;100.00
7660;BME280;3872;47.902;8.162;2023-08-30T08:28:27;91360.34;;;15.79;100.00
7660;BME280;3872;47.902;8.162;2023-08-30T08:30:54;91355.50;;;16.24;100.00
7660;BME280;3872;47.902;8.162;2023-08-30T08:33:22;91355.84;;;16.23;100.00
7660;BME280;3872;47.902;8.162;2023-08-30T08:35:49;91355.34;;;16.49;100.00
7660;BME280;3872;47.902;8.162;2023-08-30T08:38:16;91356.88;;;16.50;100.00
7660;BME280;3872;47.902;8.162;2023-08-30T08:40:42;91357.03;;;16.69;100.00
7660;BME280;3872;47.902;8.162;2023-08-30T08:43:10;91357.44;;;16.71;100.00
7660;BME280;3872;47.902;8.162;2023-08-30T08:45:38;91365.75;;;16.85;91.50
7660;BME280;3872;47.902;8.162;2023-08-30T08:48:05;91355.28;;;17.08;85.16
7660;BME280;3872;47.902;8.162;2023-08-30T08:50:33;91363.03;;;16.66;85.04
7660;BME280;3872;47.902;8.162;2023-08-30T08:53:01;91361.72;;;17.07;82.09
7660;BME280;3872;47.902;8.162;2023-08-30T08:55:29;91360.69;;;16.96;82.02
7660;BME280;3872;47.902;8.162;2023-08-30T08:57:57;91369.16;;;17.33;85.19
7660;BME280;3872;47.902;8.162;2023-08-30T09:00:24;91368.09;;;17.37;77.29
7660;BME280;3872;47.902;8.162;2023-08-30T09:02:53;91374.06;;;16.99;89.70
7660;BME280;3872;47.902;8.162;2023-08-30T09:05:19;91361.78;;;17.26;89.11
7660;BME280;3872;47.902;8.162;2023-08-30T09:07:48;91368.09;;;17.37;84.53
7660;BME280;3872;47.902;8.162;2023-08-30T09:10:19;91372.72;;;17.40;81.50
7660;BME280;3872;47.902;8.162;2023-08-30T09:12:45;91370.34;;;17.19;79.49
7660;BME280;3872;47.902;8.162;2023-08-30T09:15:13;91364.47;;;17.61;74.21
7660;BME280;3872;47.902;8.162;2023-08-30T09:17:40;91359.69;;;17.70;81.80
7660;BME280;3872;47.902;8.162;2023-08-30T09:20:08;91366.50;;;17.87;68.07
7660;BME280;3872;47.902;8.162;2023-08-30T09:22:36;91369.84;;;17.49;74.31
7660;BME280;3872;47.902;8.162;2023-08-30T09:25:05;91368.22;;;17.09;66.78
7660;BME280;3872;47.902;8.162;2023-08-30T09:27:32;91360.69;;;17.81;67.79
7660;BME280;3872;47.902;8.162;2023-08-30T09:29:59;91359.16;;;18.42;69.42
7660;BME280;3872;47.902;8.162;2023-08-30T09:32:26;91357.59;;;17.79;64.11
7660;BME280;3872;47.902;8.162;2023-08-30T09:34:52;91348.22;;;17.66;63.57
7660;BME280;3872;47.902;8.162;2023-08-30T09:37:19;91352.03;;;18.46;63.48
7660;BME280;3872;47.902;8.162;2023-08-30T09:39:48;91354.78;;;18.30;61.30
7660;BME280;3872;47.902;8.162;2023-08-30T09:42:17;91359.28;;;17.87;63.67
7660;BME280;3872;47.902;8.162;2023-08-30T09:44:44;91346.84;;;18.33;68.73
7660;BME280;3872;47.902;8.162;2023-08-30T09:47:12;91348.56;;;17.65;68.29
7660;BME280;3872;47.902;8.162;2023-08-30T09:49:42;91338.72;;;18.26;71.36
7660;BME280;3872;47.902;8.162;2023-08-30T09:52:10;91339.69;;;18.37;65.55
7660;BME280;3872;47.902;8.162;2023-08-30T09:54:37;91335.25;;;19.13;56.03
7660;BME280;3872;47.902;8.162;2023-08-30T09:57:07;91334.50;;;18.90;61.42
7660;BME280;3872;47.902;8.162;2023-08-30T09:59:35;91339.41;;;19.64;57.68
7660;BME280;3872;47.902;8.162;2023-08-30T10:02:03;91325.88;;;18.74;55.03
7660;BME280;3872;47.902;8.162;2023-08-30T10:04:31;91324.69;;;19.47;59.20
7660;BME280;3872;47.902;8.162;2023-08-30T10:06:58;91322.50;;;20.16;54.20
7660;BME280;3872;47.902;8.162;2023-08-30T10:09:25;91330.38;;;18.70;56.53
7660;BME280;3872;47.902;8.162;2023-08-30T10:11:52;91326.84;;;18.01;62.58
7660;BME280;3872;47.902;8.162;2023-08-30T10:14:19;91326.69;;;18.78;56.55
7660;BME280;3872;47.902;8.162;2023-08-30T10:16:48;91325.44;;;18.95;53.51
7660;BME280;3872;47.902;8.162;2023-08-30T10:19:16;91322.88;;;18.33;60.12
7660;BME280;3872;47.902;8.162;2023-08-30T10:21:43;91330.25;;;17.09;79.57
7660;BME280;3872;47.902;8.162;2023-08-30T10:24:12;91333.81;;;16.22;100.00
7660;BME280;3872;47.902;8.162;2023-08-30T10:26:39;91338.28;;;16.18;100.00
7660;BME280;3872;47.902;8.162;2023-08-30T10:29:08;91334.97;;;15.93;100.00
7660;BME280;3872;47.902;8.162;2023-08-30T10:31:37;91339.34;;;16.45;100.00
7660;BME280;3872;47.902;8.162;2023-08-30T10:34:13;91346.41;;;15.82;100.00
7660;BME280;3872;47.902;8.162;2023-08-30T10:36:39;91334.88;;;15.50;100.00
7660;BME280;3872;47.902;8.162;2023-08-30T10:39:11;91340.41;;;15.45;100.00
7660;BME280;3872;47.902;8.162;2023-08-30T10:41:54;91336.59;;;15.30;100.00
7660;BME280;3872;47.902;8.162;2023-08-30T10:44:21;91332.03;;;15.43;100.00
7660;BME280;3872;47.902;8.162;2023-08-30T10:46:52;91333.28;;;15.33;100.00
7660;BME280;3872;47.902;8.162;2023-08-30T10:49:20;91335.19;;;15.08;100.00
7660;BME280;3872;47.902;8.162;2023-08-30T10:51:55;91346.91;;;14.95;100.00
7660;BME280;3872;47.902;8.162;2023-08-30T10:54:22;91343.69;;;15.26;100.00
7660;BME280;3872;47.902;8.162;2023-08-30T10:56:54;91332.78;;;15.03;100.00
7660;BME280;3872;47.902;8.162;2023-08-30T10:59:23;91339.94;;;14.78;100.00
7660;BME280;3872;47.902;8.162;2023-08-30T11:01:51;91334.25;;;15.81;100.00
7660;BME280;3872;47.902;8.162;2023-08-30T11:04:20;91336.53;;;15.02;100.00
7660;BME280;3872;47.902;8.162;2023-08-30T11:06:49;91342.63;;;14.66;100.00
7660;BME280;3872;47.902;8.162;2023-08-30T11:09:18;91353.31;;;14.94;100.00
7660;BME280;3872;47.902;8.162;2023-08-30T11:11:44;91353.09;;;15.11;100.00
7660;BME280;3872;47.902;8.162;2023-08-30T11:14:11;91351.06;;;15.20;100.00
7660;BME280;3872;47.902;8.162;2023-08-30T11:16:39;91357.63;;;14.86;100.00
7660;BME280;3872;47.902;8.162;2023-08-30T11:19:07;91356.53;;;14.75;100.00
7660;BME280;3872;47.902;8.162;2023-08-30T11:21:37;91358.94;;;14.93;100.00
7660;BME280;3872;47.902;8.162;2023-08-30T11:24:04;91364.16;;;14.20;100.00
7660;BME280;3872;47.902;8.162;2023-08-30T11:26:31;91351.31;;;15.03;100.00
7660;BME280;3872;47.902;8.162;2023-08-30T11:28:57;91357.19;;;14.15;100.00
7660;BME280;3872;47.902;8.162;2023-08-30T11:31:24;91358.94;;;14.11;100.00
7660;BME280;3872;47.902;8.162;2023-08-30T11:33:53;91354.31;;;14.65;100.00
7660;BME280;3872;47.902;8.162;2023-08-30T11:36:21;91343.91;;;13.91;100.00
7660;BME280;3872;47.902;8.162;2023-08-30T11:38:49;91343.13;;;13.90;100.00
7660;BME280;3872;47.902;8.162;2023-08-30T11:41:16;91329.53;;;14.25;100.00
7660;BME280;3872;47.902;8.162;2023-08-30T11:43:43;91332.78;;;14.91;100.00
7660;BME280;3872;47.902;8.162;2023-08-30T11:46:10;91338.09;;;14.91;100.00
7660;BME280;3872;47.902;8.162;2023-08-30T11:48:38;91334.22;;;14.40;100.00
7660;BME280;3872;47.902;8.162;2023-08-30T11:51:07;91323.41;;;15.06;100.00
7660;BME280;3872;47.902;8.162;2023-08-30T11:53:33;91329.47;;;15.46;100.00
7660;BME280;3872;47.902;8.162;2023-08-30T11:56:02;91334.72;;;15.31;100.00
7660;BME280;3872;47.902;8.162;2023-08-30T11:58:32;91331.97;;;15.95;100.00
7660;BME280;3872;47.902;8.162;2023-08-30T12:00:58;91321.84;;;16.28;100.00
7660;BME280;3872;47.902;8.162;2023-08-30T12:03:26;91319.91;;;16.41;100.00
7660;BME280;3872;47.902;8.162;2023-08-30T12:05:53;91318.41;;;17.41;96.76
7660;BME280;3872;47.902;8.162;2023-08-30T12:08:20;91312.47;;;18.25;69.81
7660;BME280;3872;47.902;8.162;2023-08-30T12:10:47;91321.50;;;16.93;76.65
7660;BME280;3872;47.902;8.162;2023-08-30T12:13:25;91310.94;;;18.05;71.02
7660;BME280;3872;47.902;8.162;2023-08-30T12:15:52;91316.28;;;18.69;71.56
7660;BME280;3872;47.902;8.162;2023-08-30T12:18:20;91310.72;;;18.78;70.60
7660;BME280;3872;47.902;8.162;2023-08-30T12:20:52;91311.91;;;19.07;71.67
7660;BME280;3872;47.902;8.162;2023-08-30T12:23:20;91315.56;;;17.69;74.05
7660;BME280;3872;47.902;8.162;2023-08-30T12:25:57;91299.28;;;19.30;71.10
7660;BME280;3872;47.902;8.162;2023-08-30T12:28:25;91302.53;;;19.73;62.87
7660;BME280;3872;47.902;8.162;2023-08-30T12:30:51;91299.88;;;19.16;62.97
7660;BME280;3872;47.902;8.162;2023-08-30T12:33:18;91301.38;;;18.91;64.81
7660;BME280;3872;47.902;8.162;2023-08-30T12:35:45;91303.06;;;17.89;69.18
7660;BME280;3872;47.902;8.162;2023-08-30T12:38:11;91303.88;;;17.54;72.42
7660;BME280;3872;47.902;8.162;2023-08-30T12:40:43;91311.28;;;17.10;81.26
7660;BME280;3872;47.902;8.162;2023-08-30T12:43:09;91308.28;;;17.85;78.65
7660;BME280;3872;47.902;8.162;2023-08-30T12:45:38;91329.00;;;16.71;92.38
7660;BME280;3872;47.902;8.162;2023-08-30T12:48:06;91324.13;;;16.73;92.95
7660;BME280;3872;47.902;8.162;2023-08-30T12:50:33;91328.22;;;16.87;94.44
7660;BME280;3872;47.902;8.162;2023-08-30T12:53:00;91329.31;;;16.86;99.83
7660;BME280;3872;47.902;8.162;2023-08-30T12:55:27;91334.09;;;16.49;100.00
7660;BME280;3872;47.902;8.162;2023-08-30T12:57:54;91317.34;;;17.81;87.31
7660;BME280;3872;47.902;8.162;2023-08-30T13:00:20;91323.44;;;16.61;92.82
7660;BME280;3872;47.902;8.162;2023-08-30T13:02:49;91327.34;;;16.20;96.03
7660;BME280;3872;47.902;8.162;2023-08-30T13:05:15;91323.50;;;16.33;98.11
7660;BME280;3872;47.902;8.162;2023-08-30T13:07:42;91328.78;;;16.17;96.58
7660;BME280;3872;47.902;8.162;2023-08-30T13:10:09;91333.53;;;15.68;100.00
7660;BME280;3872;47.902;8.162;2023-08-30T13:12:36;91331.09;;;16.50;99.65
7660;BME280;3872;47.902;8.162;2023-08-30T13:15:03;91329.75;;;17.03;92.29
7660;BME280;3872;47.902;8.162;2023-08-30T13:17:30;91323.06;;;16.31;100.00
7660;BME280;3872;47.902;8.162;2023-08-30T13:19:58;91324.63;;;16.79;95.76